Time;durP1;ratioP1;P1;durP2;ratioP2;P2;SDS_P1;SDS_P2;PMS_P1;PMS_P2;Temp;Humidity;BMP_temperature;BMP_pressure;BME280_temperature;BME280_humidity;BME280_pressure;Samples;Min_cycle;Max_cycle;Signal;HPM_P1;HPM_P2
2023/10/02 00:09:20;;;;;;;13.07;5.22;;;;;;;15.22;66.37;100985.53;10420206;28;20056;-58
2023/10/02 00:14:22;;;;;;;11.27;4.60;;;;;;;15.20;66.34;100982.16;10416718;28;20056;-56
2023/10/02 00:20:12;;;;;;;12.80;5.18;;;;;;;15.18;66.50;100989.63;10417190;28;20046;-57
2023/10/02 00:25:21;;;;;;;14.05;4.57;;;;;;;15.10;66.50;100990.59;10415736;28;20041;-56
2023/10/02 00:30:36;;;;;;;12.82;4.75;;;;;;;15.09;66.61;100980.81;10423221;28;20491;-57
2023/10/02 00:35:50;;;;;;;14.85;5.20;;;;;;;15.05;66.47;100985.75;10416868;28;20064;-55
2023/10/02 00:40:52;;;;;;;13.82;4.88;;;;;;;15.03;66.67;100989.69;10424120;28;20064;-56
2023/10/02 00:45:59;;;;;;;12.63;5.30;;;;;;;15.01;66.76;100989.88;10430239;28;20069;-54
2023/10/02 00:51:11;;;;;;;10.48;4.38;;;;;;;14.97;66.76;100985.88;10432044;28;20077;-55
2023/10/02 00:56:20;;;;;;;10.48;4.40;;;;;;;14.97;66.87;100994.00;10430425;28;20072;-55
2023/10/02 01:01:24;;;;;;;11.57;4.88;;;;;;;14.91;66.86;100983.06;10426526;28;20404;-55
2023/10/02 01:06:27;;;;;;;14.52;5.50;;;;;;;14.84;66.83;100986.53;10409631;28;20052;-57
2023/10/02 01:11:28;;;;;;;10.50;5.25;;;;;;;14.83;66.75;100984.84;10423779;28;20075;-55
2023/10/02 01:16:31;;;;;;;11.75;4.55;;;;;;;14.77;66.94;100985.63;10409679;28;20374;-55
2023/10/02 01:21:35;;;;;;;13.45;5.05;;;;;;;14.71;67.14;100980.09;10423994;28;20046;-55
2023/10/02 01:26:40;;;;;;;10.35;4.25;;;;;;;14.68;67.28;100986.72;10425878;28;20042;-57
2023/10/02 01:31:42;;;;;;;12.73;5.10;;;;;;;14.63;67.18;100987.31;10414568;28;20073;-56
2023/10/02 01:36:44;;;;;;;12.07;4.65;;;;;;;14.59;67.32;100985.13;10421938;28;20080;-56
2023/10/02 01:41:52;;;;;;;14.48;4.65;;;;;;;14.54;67.46;100988.38;10426706;28;20060;-57
2023/10/02 01:46:54;;;;;;;15.88;5.57;;;;;;;14.51;67.57;100996.03;10427436;28;20450;-55
2023/10/02 01:52:01;;;;;;;11.82;5.25;;;;;;;14.48;67.48;100989.97;10425929;28;20084;-55
2023/10/02 01:57:04;;;;;;;13.25;5.38;;;;;;;14.48;67.53;100989.13;10420910;28;20094;-54
2023/10/02 02:02:12;;;;;;;11.32;5.20;;;;;;;14.45;67.80;100990.34;10425482;28;20134;-57
2023/10/02 02:07:20;;;;;;;11.43;4.50;;;;;;;14.45;67.58;100984.94;10425454;28;20049;-57
2023/10/02 02:12:22;;;;;;;14.75;6.38;;;;;;;14.42;67.67;100985.28;10428788;28;20040;-55
2023/10/02 02:17:25;;;;;;;15.82;5.85;;;;;;;14.40;67.63;100987.34;10405675;28;20999;-54
2023/10/02 02:22:31;;;;;;;14.85;5.95;;;;;;;14.38;67.71;100985.88;10423146;28;20132;-54
2023/10/02 02:27:33;;;;;;;13.05;4.90;;;;;;;14.35;67.88;100980.81;10423385;28;20099;-55
2023/10/02 02:32:43;;;;;;;13.93;5.45;;;;;;;14.33;67.95;100980.97;10430694;28;20040;-55
2023/10/02 02:37:45;;;;;;;14.15;5.40;;;;;;;14.32;67.81;100968.50;10423456;28;20115;-56
2023/10/02 02:42:51;;;;;;;20.25;5.80;;;;;;;14.32;67.88;100962.25;10423477;28;20051;-56
2023/10/02 02:48:06;;;;;;;25.13;5.07;;;;;;;14.26;67.85;100961.97;10425724;28;20045;-57
2023/10/02 02:53:22;;;;;;;14.55;5.15;;;;;;;14.18;67.96;100972.00;10403906;28;20135;-57
2023/10/02 02:58:25;;;;;;;;;;;;;;;14.11;67.76;100965.69;10426822;28;20037;-56
2023/10/02 03:03:32;;;;;;;16.45;4.80;;;;;;;14.08;67.96;100969.59;10421418;28;19948;-56
2023/10/02 03:08:41;;;;;;;12.05;5.32;;;;;;;14.06;68.03;100968.94;10420297;28;20057;-56
2023/10/02 03:13:43;;;;;;;14.90;5.25;;;;;;;14.06;68.04;100963.53;10418101;28;20072;-57
2023/10/02 03:18:48;;;;;;;14.40;5.53;;;;;;;14.07;67.85;100960.63;10420424;28;20495;-56
2023/10/02 03:23:54;;;;;;;12.27;4.53;;;;;;;14.05;68.13;100961.84;10421983;28;20053;-56
2023/10/02 03:29:03;;;;;;;15.00;6.03;;;;;;;13.86;68.60;100969.47;10423451;28;20527;-58
2023/10/02 03:34:27;;;;;;;9.05;4.50;;;;;;;13.90;68.58;100972.59;10418746;28;20717;-56
2023/10/02 03:44:58;;;;;;;16.42;6.15;;;;;;;13.99;68.39;100973.41;10421656;28;20405;-56
2023/10/02 03:50:00;;;;;;;16.20;5.50;;;;;;;13.97;68.30;100976.28;10421865;28;20049;-57
2023/10/02 03:55:17;;;;;;;12.63;4.93;;;;;;;13.96;68.19;100969.19;10419885;28;20049;-56
2023/10/02 04:00:22;;;;;;;14.15;4.82;;;;;;;13.99;68.22;100962.59;10423568;28;20069;-56
2023/10/02 04:05:43;;;;;;;15.30;5.88;;;;;;;13.93;68.41;100950.63;10418870;28;20053;-56
2023/10/02 04:10:55;;;;;;;11.60;5.10;;;;;;;13.91;68.14;100963.50;10418436;28;20053;-56
2023/10/02 04:21:25;;;;;;;16.38;6.57;;;;;;;13.85;68.41;100953.41;10424972;28;20411;-56
2023/10/02 04:26:33;;;;;;;13.38;5.15;;;;;;;13.80;68.43;100955.81;10425769;28;20053;-58
2023/10/02 04:31:35;;;;;;;13.88;5.07;;;;;;;13.71;68.51;100962.31;10426024;28;20526;-56
2023/10/02 04:36:40;;;;;;;13.13;5.50;;;;;;;13.69;68.30;100955.22;10424817;28;20109;-56
2023/10/02 04:42:09;;;;;;;14.10;5.38;;;;;;;13.73;68.58;100962.97;10430275;28;20073;-56
2023/10/02 04:47:03;;;;;;;11.57;5.40;;;;;;;13.74;68.26;100967.34;10431426;28;20045;-56
2023/10/02 04:52:05;;;;;;;13.05;4.95;;;;;;;13.71;68.49;100971.25;10434053;28;20091;-56
2023/10/02 04:57:14;;;;;;;15.55;5.88;;;;;;;13.70;68.48;100985.78;10430686;28;20648;-56
2023/10/02 05:02:21;;;;;;;12.27;5.35;;;;;;;13.67;68.64;100983.47;10428919;28;20045;-56
2023/10/02 05:07:22;;;;;;;21.23;6.07;;;;;;;13.68;68.66;100972.47;10429343;28;20049;-55
2023/10/02 05:12:28;;;;;;;12.48;5.63;;;;;;;13.66;68.76;100968.25;10425432;28;20107;-58
2023/10/02 05:17:41;;;;;;;15.27;5.90;;;;;;;13.68;68.83;100977.88;10428319;28;20738;-57
2023/10/02 05:22:45;;;;;;;15.57;5.40;;;;;;;13.69;68.84;100968.75;10422058;28;20140;-58
2023/10/02 05:27:47;;;;;;;12.60;5.60;;;;;;;13.71;68.83;100970.44;10428301;28;20083;-63
2023/10/02 05:32:51;;;;;;;14.30;4.65;;;;;;;13.71;68.71;100973.97;10424529;28;20061;-63
2023/10/02 05:37:54;;;;;;;16.17;5.47;;;;;;;13.73;68.38;100977.31;10422783;28;20068;-64
2023/10/02 05:48:01;;;;;;;12.75;4.85;;;;;;;13.79;68.37;100979.31;10424804;28;20358;-63
2023/10/02 05:53:04;;;;;;;13.65;4.65;;;;;;;13.83;68.39;100983.31;10428933;28;20148;-62
2023/10/02 05:58:06;;;;;;;14.55;5.65;;;;;;;13.85;68.32;100983.97;10429691;28;20045;-63
2023/10/02 06:03:07;;;;;;;16.20;4.85;;;;;;;13.89;68.22;100979.06;10424776;28;20045;-60
2023/10/02 06:08:10;;;;;;;10.98;5.40;;;;;;;13.93;68.44;100984.94;10424202;28;20049;-61
2023/10/02 06:13:11;;;;;;;14.18;6.20;;;;;;;13.96;68.24;100979.16;10427171;28;20042;-64
2023/10/02 06:18:24;;;;;;;13.85;5.43;;;;;;;14.00;68.45;100988.56;10423638;28;20041;-64
2023/10/02 06:23:29;;;;;;;12.93;4.75;;;;;;;14.07;68.33;100993.06;10422319;28;20051;-59
2023/10/02 06:28:31;;;;;;;13.23;5.43;;;;;;;14.18;68.49;100991.81;10425473;28;20138;-60
2023/10/02 06:33:36;;;;;;;11.65;4.40;;;;;;;14.33;68.41;100990.97;10422006;28;20052;-59
2023/10/02 06:38:40;;;;;;;14.63;5.50;;;;;;;14.48;68.38;100987.25;10424431;28;20076;-60
2023/10/02 06:43:42;;;;;;;14.30;5.72;;;;;;;14.68;68.38;100994.84;10422291;28;20055;-59
2023/10/02 06:48:43;;;;;;;13.13;5.93;;;;;;;14.82;68.18;100998.56;10422624;28;20064;-59
2023/10/02 06:53:46;;;;;;;16.27;6.20;;;;;;;14.98;68.32;100987.53;10419701;28;20044;-59
2023/10/02 06:58:49;;;;;;;17.90;6.88;;;;;;;15.17;68.21;100996.94;10421155;28;20049;-59
2023/10/02 07:03:51;;;;;;;16.60;6.15;;;;;;;15.34;68.24;100988.56;10420102;28;20076;-59
2023/10/02 07:09:10;;;;;;;16.17;6.55;;;;;;;15.44;68.17;100987.25;10418576;28;20451;-59
2023/10/02 07:14:13;;;;;;;13.98;6.10;;;;;;;15.61;68.47;100985.09;10425787;28;20404;-59
2023/10/02 07:19:27;;;;;;;16.73;7.57;;;;;;;15.73;68.53;100990.88;10424046;28;20044;-59
2023/10/02 07:24:28;;;;;;;23.50;7.75;;;;;;;15.86;68.36;100992.88;10418791;28;20056;-58
2023/10/02 07:29:40;;;;;;;16.35;7.10;;;;;;;15.98;68.38;101004.03;10422209;28;20456;-59
2023/10/02 07:34:41;;;;;;;15.05;6.57;;;;;;;16.10;68.31;100996.22;10423250;28;20042;-58
2023/10/02 07:39:43;;;;;;;22.85;7.40;;;;;;;16.30;68.05;100999.06;10423853;28;20069;-58
2023/10/02 07:44:45;;;;;;;18.65;7.15;;;;;;;16.45;67.91;100997.94;10423459;28;20045;-57
2023/10/02 07:49:51;;;;;;;20.85;7.65;;;;;;;16.61;67.73;100995.94;10416786;28;20052;-58
2023/10/02 07:54:58;;;;;;;15.68;8.32;;;;;;;16.81;67.50;100993.34;10419941;28;20064;-59
2023/10/02 08:00:05;;;;;;;14.75;7.40;;;;;;;16.97;67.58;100989.47;10423040;28;20052;-58
2023/10/02 08:05:09;;;;;;;16.88;7.05;;;;;;;17.12;67.33;100989.31;10419237;28;20041;-58
2023/10/02 08:10:11;;;;;;;19.58;8.02;;;;;;;17.30;67.02;100989.59;10418566;28;20049;-57
2023/10/02 08:15:32;;;;;;;19.00;9.15;;;;;;;17.47;67.03;100990.03;10424146;28;20519;-58
2023/10/02 08:20:37;;;;;;;21.50;8.57;;;;;;;17.68;66.69;100991.75;10404966;28;20050;-58
2023/10/02 08:25:39;;;;;;;21.60;8.15;;;;;;;17.96;66.39;100991.59;10405387;28;20091;-59
2023/10/02 08:30:40;;;;;;;20.88;8.30;;;;;;;18.17;65.80;100992.44;10424085;28;20086;-59
2023/10/02 08:35:46;;;;;;;18.65;8.30;;;;;;;18.39;65.78;100982.97;10423498;28;20047;-58
2023/10/02 08:40:59;;;;;;;21.60;8.38;;;;;;;18.63;65.46;100972.44;10421626;28;20059;-57
2023/10/02 08:46:03;;;;;;;18.15;8.18;;;;;;;18.93;64.86;100975.50;10422593;28;20038;-59
2023/10/02 08:51:09;;;;;;;19.27;8.80;;;;;;;19.15;64.43;100980.66;10421842;28;20143;-60
2023/10/02 08:56:22;;;;;;;20.30;8.88;;;;;;;19.42;63.96;100970.44;10419669;28;20042;-60
2023/10/02 09:01:27;;;;;;;20.58;8.85;;;;;;;19.67;63.48;100966.91;10421854;28;20127;-60
2023/10/02 09:06:36;;;;;;;20.42;8.85;;;;;;;19.91;62.95;100968.03;10430821;28;20151;-59
2023/10/02 09:11:38;;;;;;;18.80;8.63;;;;;;;20.16;62.34;100968.88;10430986;28;20324;-59
2023/10/02 09:16:40;;;;;;;27.50;9.73;;;;;;;20.25;62.50;100963.13;10431594;28;20110;-59
2023/10/02 09:21:46;;;;;;;17.98;9.75;;;;;;;20.45;62.08;100965.63;10429918;28;20132;-59
2023/10/02 09:26:48;;;;;;;22.02;10.60;;;;;;;20.60;61.67;100966.13;10432853;28;20083;-59
2023/10/02 09:31:49;;;;;;;22.52;9.02;;;;;;;20.79;61.11;100969.69;10432410;28;20539;-60
2023/10/02 09:36:52;;;;;;;23.35;9.63;;;;;;;21.00;60.70;100951.97;10430817;28;20042;-60
2023/10/02 09:42:14;;;;;;;20.13;8.95;;;;;;;21.16;60.60;100945.88;10427148;28;20094;-60
2023/10/02 09:47:24;;;;;;;21.70;8.88;;;;;;;21.39;59.60;100941.56;10430169;28;20045;-60
2023/10/02 09:52:34;;;;;;;20.67;9.15;;;;;;;21.53;59.63;100942.22;10425781;28;20049;-57
2023/10/02 09:57:49;;;;;;;21.70;9.38;;;;;;;21.65;58.92;100937.59;10430972;28;20060;-56
2023/10/02 10:03:23;;;;;;;26.05;8.65;;;;;;;21.75;58.83;100939.75;10425306;28;20091;-58
2023/10/02 10:08:28;;;;;;;16.02;7.32;;;;;;;21.96;58.07;100927.41;10423316;28;20069;-58
2023/10/02 10:13:37;;;;;;;19.00;8.95;;;;;;;22.20;57.53;100917.28;10427856;28;20060;-56
2023/10/02 10:25:22;;;;;;;15.75;7.05;;;;;;;22.61;56.69;100911.88;10427328;28;20057;-56
2023/10/02 10:30:24;;;;;;;15.80;6.45;;;;;;;22.87;56.18;100910.50;10413980;28;20564;-55
2023/10/02 10:35:31;;;;;;;14.93;6.85;;;;;;;22.90;55.56;100907.25;10430098;28;20051;-61
2023/10/02 10:40:46;;;;;;;14.45;7.55;;;;;;;23.07;55.22;100893.63;10427089;28;20060;-54
2023/10/02 10:45:52;;;;;;;19.42;6.30;;;;;;;23.27;54.89;100884.94;10424942;28;20393;-55
2023/10/02 10:50:59;;;;;;;16.83;6.68;;;;;;;23.52;54.49;100888.13;10424477;28;20053;-56
2023/10/02 10:56:06;;;;;;;16.65;6.55;;;;;;;23.61;53.79;100891.28;10421087;28;20475;-56
2023/10/02 11:01:13;;;;;;;14.85;6.22;;;;;;;23.82;53.40;100886.97;10426577;28;20401;-56
2023/10/02 11:06:16;;;;;;;11.35;5.68;;;;;;;24.04;53.08;100883.47;10423654;28;20037;-58
2023/10/02 11:11:25;;;;;;;12.85;5.57;;;;;;;24.22;51.90;100872.16;10421822;28;20053;-56
2023/10/02 11:16:35;;;;;;;15.27;5.45;;;;;;;24.43;51.47;100870.53;10415477;28;20049;-57
2023/10/02 11:21:46;;;;;;;14.27;6.10;;;;;;;24.97;50.13;100867.03;10410969;28;20057;-57
2023/10/02 11:26:48;;;;;;;15.65;5.78;;;;;;;25.63;48.44;100863.22;10412404;28;20052;-57
2023/10/02 11:37:23;;;;;;;13.38;5.30;;;;;;;25.66;48.13;100848.94;10415167;28;20053;-56
2023/10/02 11:42:24;;;;;;;15.38;6.00;;;;;;;25.78;48.00;100838.56;10421047;28;20551;-56
2023/10/02 11:47:28;;;;;;;15.23;5.80;;;;;;;26.00;47.25;100838.44;10415732;28;20064;-58
2023/10/02 11:52:31;;;;;;;15.55;4.75;;;;;;;26.35;45.99;100830.63;10417902;28;20143;-58
2023/10/02 11:57:33;;;;;;;12.15;4.82;;;;;;;26.88;45.10;100821.13;10423398;28;20056;-57
2023/10/02 12:02:35;;;;;;;11.45;4.80;;;;;;;27.15;44.56;100814.53;10425897;28;20992;-58
2023/10/02 12:07:38;;;;;;;13.00;4.97;;;;;;;27.37;43.78;100807.94;10407023;28;20103;-56
2023/10/02 12:12:42;;;;;;;13.68;5.30;;;;;;;27.63;43.37;100803.22;10403119;28;20076;-60
2023/10/02 12:17:44;;;;;;;11.50;4.80;;;;;;;27.92;42.63;100794.31;10426199;28;20041;-60
2023/10/02 12:22:46;;;;;;;11.52;4.60;;;;;;;28.06;42.32;100790.69;10421146;28;20053;-59
2023/10/02 12:27:49;;;;;;;13.07;4.85;;;;;;;27.95;42.25;100785.47;10412252;28;20057;-59
2023/10/02 12:32:52;;;;;;;10.82;4.65;;;;;;;28.08;41.85;100780.19;10421019;28;20601;-60
2023/10/02 12:37:54;;;;;;;13.65;5.03;;;;;;;28.29;40.87;100763.47;10427435;28;20123;-59
2023/10/02 12:42:55;;;;;;;11.23;4.35;;;;;;;28.51;40.85;100760.34;10407294;28;20443;-60
2023/10/02 12:47:57;;;;;;;12.77;5.43;;;;;;;28.37;40.47;100764.81;10428654;28;20041;-59
2023/10/02 12:52:58;;;;;;;10.20;5.03;;;;;;;28.31;40.73;100755.72;10427304;28;20061;-60
2023/10/02 12:58:01;;;;;;;13.32;5.22;;;;;;;28.36;40.23;100743.78;10428993;28;20107;-60
2023/10/02 13:03:04;;;;;;;12.55;4.80;;;;;;;28.36;39.82;100750.19;10428522;28;20053;-59
2023/10/02 13:08:06;;;;;;;14.52;5.53;;;;;;;28.35;40.24;100740.22;10427072;28;20055;-60
2023/10/02 13:13:08;;;;;;;10.95;4.57;;;;;;;28.45;39.69;100728.25;10427871;28;20126;-60
2023/10/02 13:18:10;;;;;;;11.98;5.53;;;;;;;28.62;39.54;100711.31;10426900;28;20048;-62
2023/10/02 13:23:14;;;;;;;15.82;5.03;;;;;;;28.93;38.52;100709.13;10432594;28;20049;-60
2023/10/02 13:28:16;;;;;;;14.43;5.63;;;;;;;29.11;38.79;100709.50;10426279;28;20040;-61
2023/10/02 13:33:18;;;;;;;12.60;5.25;;;;;;;29.51;38.32;100699.97;10427363;28;20064;-60
2023/10/02 13:38:20;;;;;;;14.60;5.30;;;;;;;29.92;38.34;100702.28;10426837;28;20069;-59
2023/10/02 13:43:21;;;;;;;11.55;5.20;;;;;;;30.20;37.17;100696.91;10428605;28;20052;-57
2023/10/02 13:48:23;;;;;;;12.77;5.43;;;;;;;30.27;36.66;100694.56;10423568;28;20056;-57
2023/10/02 13:53:24;;;;;;;13.90;4.85;;;;;;;30.41;37.10;100683.56;10425280;28;20053;-58
2023/10/02 13:58:26;;;;;;;10.80;5.07;;;;;;;30.82;36.91;100680.13;10423830;28;20049;-58
2023/10/02 14:03:27;;;;;;;14.40;5.25;;;;;;;31.09;36.02;100676.63;10429482;28;20708;-58
2023/10/02 14:08:29;;;;;;;14.15;5.43;;;;;;;31.04;35.70;100671.16;10426925;28;20071;-59
2023/10/02 14:13:31;;;;;;;11.70;4.88;;;;;;;31.62;35.26;100662.25;10425581;28;20723;-58
2023/10/02 14:18:38;;;;;;;12.10;5.30;;;;;;;32.45;34.29;100654.88;10423835;28;20045;-58
2023/10/02 14:23:40;;;;;;;17.33;5.50;;;;;;;33.52;32.39;100654.00;10419212;28;20081;-58
2023/10/02 14:28:41;;;;;;;10.40;4.25;;;;;;;32.91;32.82;100651.75;10422158;28;20065;-59
2023/10/02 14:33:43;;;;;;;17.17;5.65;;;;;;;32.50;32.66;100644.41;10422382;28;20041;-58
2023/10/02 14:38:44;;;;;;;15.93;5.97;;;;;;;31.89;33.35;100643.88;10423898;28;20529;-58
2023/10/02 14:43:46;;;;;;;13.77;5.75;;;;;;;31.65;33.31;100634.97;10420508;28;20056;-60
2023/10/02 14:48:47;;;;;;;10.65;5.13;;;;;;;31.78;33.18;100634.94;10425742;28;20576;-59
2023/10/02 14:53:49;;;;;;;15.20;6.00;;;;;;;31.25;33.66;100629.94;10419119;28;20052;-58
2023/10/02 14:58:50;;;;;;;17.70;5.75;;;;;;;30.76;34.20;100634.16;10421400;28;20164;-58
2023/10/02 15:03:53;;;;;;;14.02;5.50;;;;;;;30.69;34.51;100626.22;10424954;28;20053;-59
2023/10/02 15:09:02;;;;;;;14.88;5.70;;;;;;;30.31;34.42;100612.41;10419234;28;20053;-59
2023/10/02 15:14:08;;;;;;;14.07;5.70;;;;;;;30.66;34.03;100618.50;10425537;28;20049;-60
2023/10/02 15:19:12;;;;;;;13.93;6.53;;;;;;;30.74;32.98;100616.97;10402118;28;20508;-60
2023/10/02 15:24:14;;;;;;;17.92;6.45;;;;;;;30.49;33.60;100610.75;10418321;28;20048;-60
2023/10/02 15:29:16;;;;;;;18.45;6.82;;;;;;;30.09;34.19;100607.47;10420872;28;20052;-60
2023/10/02 15:34:19;;;;;;;18.60;6.25;;;;;;;29.94;34.07;100602.16;10421078;28;20045;-60
2023/10/02 15:39:20;;;;;;;15.85;6.63;;;;;;;29.95;34.70;100606.59;10421535;28;20049;-58
2023/10/02 15:44:22;;;;;;;12.40;5.85;;;;;;;29.93;34.48;100597.75;10423584;28;20510;-64
2023/10/02 15:49:26;;;;;;;17.90;6.68;;;;;;;29.75;34.93;100585.53;10422488;28;20053;-63
2023/10/02 15:54:29;;;;;;;14.20;6.18;;;;;;;29.60;35.39;100587.38;10423901;28;20049;-63
2023/10/02 15:59:31;;;;;;;15.48;7.10;;;;;;;29.44;35.01;100581.22;10418591;28;20053;-63
2023/10/02 16:04:32;;;;;;;18.25;6.70;;;;;;;29.21;35.71;100579.31;10417324;28;20581;-64
2023/10/02 16:09:34;;;;;;;15.35;6.72;;;;;;;28.97;36.01;100576.47;10424328;28;20812;-65
2023/10/02 16:14:35;;;;;;;18.15;7.32;;;;;;;28.71;36.80;100568.44;10422511;28;20612;-63
2023/10/02 16:19:37;;;;;;;16.73;7.13;;;;;;;28.45;37.24;100562.31;10422287;28;20049;-63
2023/10/02 16:24:38;;;;;;;15.27;6.63;;;;;;;28.15;38.01;100567.00;10401092;28;20056;-64
2023/10/02 16:29:40;;;;;;;15.68;7.35;;;;;;;27.84;38.46;100564.44;10421374;28;20054;-63
2023/10/02 16:34:41;;;;;;;19.73;8.10;;;;;;;27.50;39.35;100556.06;10421459;28;20046;-61
2023/10/02 16:39:43;;;;;;;27.98;10.00;;;;;;;27.14;40.45;100550.69;10424579;28;20041;-64
2023/10/02 16:44:44;;;;;;;20.75;7.55;;;;;;;26.81;41.51;100546.63;10427714;28;20049;-63
2023/10/02 16:49:47;;;;;;;26.55;9.60;;;;;;;26.43;42.12;100544.19;10423971;28;20373;-65
2023/10/02 16:54:50;;;;;;;25.10;8.77;;;;;;;26.08;43.17;100543.09;10426985;28;20052;-57
2023/10/02 16:59:52;;;;;;;21.92;8.23;;;;;;;25.77;44.30;100544.13;10417961;28;20119;-61
2023/10/02 17:04:58;;;;;;;19.67;8.10;;;;;;;25.44;45.99;100544.34;10422345;28;20563;-62
2023/10/02 17:09:59;;;;;;;18.23;8.07;;;;;;;25.10;46.95;100547.47;10421116;28;20054;-60
2023/10/02 17:15:01;;;;;;;17.75;8.43;;;;;;;24.76;48.11;100540.69;10428825;28;20279;-64
2023/10/02 17:20:06;;;;;;;20.80;9.23;;;;;;;24.43;47.90;100543.47;10411922;28;20049;-63
2023/10/02 17:25:09;;;;;;;21.02;9.05;;;;;;;24.01;48.77;100544.22;10433645;28;20081;-62
2023/10/02 17:30:14;;;;;;;19.75;7.88;;;;;;;23.89;49.20;100560.03;10398727;28;20056;-57
2023/10/02 17:35:20;;;;;;;22.98;8.30;;;;;;;23.63;49.64;100559.72;10433033;28;20101;-57
2023/10/02 17:40:23;;;;;;;19.83;8.13;;;;;;;23.40;50.42;100549.03;10432542;28;20045;-57
2023/10/02 17:45:25;;;;;;;19.48;7.35;;;;;;;23.15;51.21;100556.69;10431630;28;20664;-57
2023/10/02 17:50:26;;;;;;;21.58;7.93;;;;;;;22.92;51.99;100554.16;10412503;28;20523;-57
2023/10/02 17:55:29;;;;;;;22.25;7.78;;;;;;;22.67;52.53;100550.00;10430011;28;20405;-57
2023/10/02 18:00:35;;;;;;;20.23;7.30;;;;;;;22.49;53.28;100539.28;10421764;28;20059;-57
2023/10/02 18:05:36;;;;;;;18.17;6.50;;;;;;;22.27;53.35;100541.97;10434178;28;20045;-59
2023/10/02 18:10:38;;;;;;;19.35;7.93;;;;;;;22.09;54.07;100540.25;10432452;28;20275;-57
2023/10/02 18:15:42;;;;;;;17.20;6.60;;;;;;;21.87;54.81;100532.78;10430249;28;20148;-58
2023/10/02 18:20:47;;;;;;;17.30;7.10;;;;;;;21.67;55.53;100537.88;10424217;28;20127;-58
2023/10/02 18:25:51;;;;;;;16.88;7.47;;;;;;;21.44;55.94;100542.34;10431102;28;20049;-58
2023/10/02 18:30:54;;;;;;;18.48;7.70;;;;;;;21.28;56.44;100538.44;10426115;28;20055;-58
2023/10/02 18:36:02;;;;;;;14.32;6.85;;;;;;;21.15;57.01;100536.84;10426855;28;20055;-58
2023/10/02 18:41:10;;;;;;;24.65;10.45;;;;;;;21.01;57.37;100530.00;10431181;28;20041;-57
2023/10/02 18:46:12;;;;;;;28.08;12.05;;;;;;;20.85;57.26;100534.25;10412685;28;20065;-58
2023/10/02 18:51:18;;;;;;;27.35;13.10;;;;;;;20.70;57.76;100539.41;10419320;28;20052;-58
2023/10/02 18:56:19;;;;;;;24.90;11.73;;;;;;;20.53;58.20;100541.97;10414564;28;20049;-58
2023/10/02 19:01:22;;;;;;;24.65;12.18;;;;;;;20.43;58.23;100533.56;10428260;28;20053;-58
2023/10/02 19:06:25;;;;;;;28.20;13.82;;;;;;;20.26;59.01;100533.41;10419950;28;20045;-57
2023/10/02 19:11:27;;;;;;;24.98;13.02;;;;;;;20.11;58.93;100529.25;10428397;28;20057;-57
2023/10/02 19:16:29;;;;;;;24.13;11.95;;;;;;;19.94;59.60;100526.34;10430595;28;20504;-57
2023/10/02 19:21:30;;;;;;;27.90;12.32;;;;;;;19.81;60.03;100519.22;10413313;28;20064;-58
2023/10/02 19:26:33;;;;;;;26.48;11.50;;;;;;;19.69;60.27;100517.47;10430733;28;20041;-57
2023/10/02 19:31:35;;;;;;;25.77;10.60;;;;;;;19.58;60.33;100522.66;10421889;28;20106;-58
2023/10/02 19:36:38;;;;;;;20.60;9.85;;;;;;;19.35;61.03;100526.13;10418212;28;20045;-58
2023/10/02 19:41:40;;;;;;;20.52;10.50;;;;;;;19.26;61.13;100513.03;10434558;28;20059;-58
2023/10/02 19:46:42;;;;;;;24.05;10.90;;;;;;;19.17;61.30;100509.78;10439552;28;20041;-58
2023/10/02 19:51:44;;;;;;;19.70;9.48;;;;;;;19.08;61.44;100505.72;10412062;28;20052;-58
2023/10/02 19:56:45;;;;;;;21.90;9.38;;;;;;;18.97;61.87;100499.94;10413328;28;20102;-58
2023/10/02 20:01:48;;;;;;;18.15;9.63;;;;;;;18.89;61.88;100496.72;10427654;28;20072;-57
2023/10/02 20:06:50;;;;;;;23.38;10.60;;;;;;;18.82;62.20;100491.34;10427237;28;20514;-58
2023/10/02 20:11:51;;;;;;;21.48;9.90;;;;;;;18.74;62.12;100486.16;10428324;28;20049;-58
2023/10/02 20:16:53;;;;;;;21.83;9.10;;;;;;;18.64;62.29;100483.94;10425096;28;20052;-58
2023/10/02 20:21:54;;;;;;;20.13;8.35;;;;;;;18.56;62.45;100470.63;10424670;28;20044;-58
2023/10/02 20:26:56;;;;;;;22.80;8.27;;;;;;;18.43;62.71;100466.19;10425271;28;20055;-56
2023/10/02 20:31:58;;;;;;;27.85;10.10;;;;;;;18.34;62.81;100456.63;10423848;28;20811;-55
2023/10/02 20:36:59;;;;;;;20.25;8.98;;;;;;;18.26;63.03;100456.91;10422832;28;20045;-55
2023/10/02 20:42:01;;;;;;;21.52;8.57;;;;;;;18.14;62.96;100451.38;10420307;28;20060;-56
2023/10/02 20:47:03;;;;;;;18.77;7.93;;;;;;;18.06;63.30;100446.22;10417177;28;20041;-56
2023/10/02 20:52:17;;;;;;;22.88;8.35;;;;;;;17.94;63.30;100446.13;10422646;28;20071;-56
2023/10/02 20:57:21;;;;;;;19.23;7.97;;;;;;;17.77;63.63;100448.50;10408470;28;20041;-56
2023/10/02 21:02:23;;;;;;;20.60;9.18;;;;;;;17.64;64.19;100455.72;10428897;28;20053;-58
2023/10/02 21:07:24;;;;;;;20.27;9.10;;;;;;;17.55;64.71;100453.50;10430419;28;20048;-56
2023/10/02 21:12:26;;;;;;;23.75;8.80;;;;;;;17.54;64.50;100438.25;10429914;28;20056;-55
2023/10/02 21:17:28;;;;;;;24.02;9.10;;;;;;;17.47;64.71;100432.84;10425320;28;20045;-56
2023/10/02 21:22:29;;;;;;;18.83;7.78;;;;;;;17.48;64.81;100428.25;10430382;28;20123;-56
2023/10/02 21:27:31;;;;;;;22.80;8.07;;;;;;;17.40;64.67;100427.47;10429109;28;20484;-56
2023/10/02 21:32:33;;;;;;;20.13;8.00;;;;;;;17.33;64.73;100420.41;10429284;28;20146;-55
2023/10/02 21:37:35;;;;;;;18.30;7.70;;;;;;;17.30;64.76;100420.81;10421517;28;20044;-55
2023/10/02 21:42:37;;;;;;;24.95;8.88;;;;;;;17.17;64.96;100414.41;10426274;28;20049;-55
2023/10/02 21:47:38;;;;;;;20.25;7.88;;;;;;;17.16;65.05;100401.06;10422829;28;20046;-54
2023/10/02 21:52:40;;;;;;;19.52;8.60;;;;;;;17.13;64.80;100406.94;10430200;28;20053;-56
2023/10/02 21:57:41;;;;;;;27.08;7.95;;;;;;;17.06;64.79;100404.25;10425789;28;20059;-56
2023/10/02 22:02:45;;;;;;;21.30;8.65;;;;;;;16.99;65.09;100395.31;10427821;28;20064;-54
2023/10/02 22:07:47;;;;;;;23.83;7.95;;;;;;;16.93;65.12;100390.75;10428289;28;20504;-56
2023/10/02 22:12:49;;;;;;;18.40;7.72;;;;;;;16.91;64.97;100387.41;10402027;28;20056;-55
2023/10/02 22:17:51;;;;;;;17.02;7.10;;;;;;;16.84;65.11;100387.44;10428145;28;20048;-56
2023/10/02 22:22:52;;;;;;;19.75;9.38;;;;;;;16.72;65.47;100394.56;10423248;28;20440;-56
2023/10/02 22:27:54;;;;;;;20.20;7.90;;;;;;;16.70;65.35;100383.91;10423580;28;20033;-56
2023/10/02 22:32:55;;;;;;;16.60;6.53;;;;;;;16.64;65.35;100387.50;10424387;28;20042;-57
2023/10/02 22:38:01;;;;;;;20.02;7.63;;;;;;;16.59;65.69;100379.19;10420309;28;20373;-56
2023/10/02 22:43:02;;;;;;;23.33;8.20;;;;;;;16.54;65.53;100374.38;10424296;28;20045;-55
2023/10/02 22:48:05;;;;;;;19.33;7.07;;;;;;;16.51;65.61;100368.53;10426581;28;20037;-55
2023/10/02 22:53:08;;;;;;;19.55;7.18;;;;;;;16.45;65.53;100364.84;10407087;28;20134;-57
2023/10/02 22:58:09;;;;;;;20.52;7.70;;;;;;;16.41;65.67;100361.72;10419855;28;20128;-57
2023/10/02 23:03:12;;;;;;;16.10;6.03;;;;;;;16.38;65.61;100350.44;10422207;28;20049;-57
2023/10/02 23:08:14;;;;;;;15.27;6.15;;;;;;;16.34;65.82;100341.06;10420067;28;20053;-58
2023/10/02 23:13:16;;;;;;;21.60;7.35;;;;;;;16.29;65.50;100341.72;10422038;28;20488;-58
2023/10/02 23:18:18;;;;;;;15.98;6.93;;;;;;;16.26;65.68;100342.13;10421122;28;20041;-57
2023/10/02 23:23:20;;;;;;;19.02;7.90;;;;;;;16.16;65.72;100333.63;10420054;28;20059;-58
2023/10/02 23:28:24;;;;;;;17.85;8.30;;;;;;;16.13;65.91;100329.44;10422779;28;20053;-57
2023/10/02 23:33:26;;;;;;;26.10;9.18;;;;;;;16.13;65.97;100331.31;10422567;28;20053;-57
2023/10/02 23:38:27;;;;;;;17.13;6.82;;;;;;;15.98;66.32;100340.53;10417616;28;20114;-58